Lake Lure, North Carolina
Current Conditions -  °F | °C
As of 10:15 PM on Thursday 27 Nov 2014 (Local Time) from KFQD Reporting Station
Broken Clouds Broken Clouds  
Wind Chill: 35°   Ceiling: 3900
Heat Index: 35°   Visibility: 10mi
Dew Point: 22°   Wind: 0mph
Humidity: 59%   Direction: NA
Pressure: 30.3"   Gusts: NA
Location:  35.43°N, 82.2°W
Report Text: KFQD 280315Z AUTO 00000KT 10SM BKN039 02/M05 A3030 RMK AO2 T00181055
Loading
Personal Weather Stations






























Interactive Weather Map New forecast layout! Learn more

10-Day Weather Forecast

Advertisements
Track Severe Weather on mobile